Central Sierra Snow Lab Weather observations

Data are for 10 minute period ending at time listed.
 Day   Time    Incoming  Reflected   Ave.   Ave.    Ave.    Vector  Max.    Ave.    Total    Snow   
  of    of      Solar     Solar      Air    Rel.    Wind    Wind    Wind   Baro.   Precip.   Depth  
Year   Day     Radiation Radiation   Temp.  Humid.  Speed   Dir.    Gust   Press.                   
2015   (PST)    Kw/m2     Kw/m2       F       %      mph     deg.    mph     mb.     in.      in.   
----------------------------------------------------------------------------------------------------
 114    3:20    0.000     999.000     33.9    123     2.8     216     7.4   783.90   20.61   -4.70  
 114    3:30    0.000     999.000     34.2    124     1.9     220     6.1   783.90   20.60   -4.70  
 114    3:40    0.000     999.000     34.2    124     3.3     238     6.7   783.90   20.56   55.60  
 114    3:50    0.000     999.000     34.3    124     3.0     221     8.6   783.80   20.61   43.40  
 114    4:00    0.000     999.000     34.0    125     3.3     223     8.9   783.90   20.61   -7.50  
 114    4:10    0.000     999.000     33.4    125     3.2     231     7.8   783.90   20.62    9.60  
 114    4:20    0.000     999.000     33.0    125     3.7     228     7.8   783.90   20.61   -5.00  
 114    4:30    0.000     999.000     33.1    125     3.0     217     8.4   783.90   20.61   -5.10  
 114    4:40    0.000     999.000     33.1    125     3.2     210     7.1   783.90   20.61   -5.40  
 114    4:50    0.000     999.000     33.2    125     3.3     208     7.1   784.10   20.61   -8.40  
 114    5:00    0.000     999.000     33.2    125     3.8     212     9.2   784.10   20.61   -7.60  
 114    5:10    0.000     999.000     33.2    125     3.3     219    10.1   784.30   20.60   -7.70  
 114    5:20    0.000     999.000     33.1    125     3.3     215    13.9   784.40   20.61   -8.80  
 114    5:30    0.001     999.000     33.1    125     4.1     228    10.0   784.40   20.61   -9.30  
 114    5:40    0.002     999.000     33.0    125     3.9     230     9.5   784.40   20.56   -8.70  
 114    5:50    0.003     999.000     33.0    125     3.1     212     8.7   784.40   20.60   -7.80  
 114    6:00    0.003     999.000     33.1    125     2.7     212     6.8   784.50   20.62   -6.00  
 114    6:10    0.008     999.000     33.2    125     2.6     208     5.4   784.60   20.62   -5.80  
 114    6:20    0.014     999.000     33.4    125     2.6     199     7.4   784.70   20.62   -5.70  
 114    6:30    0.025     999.000     33.6    125     3.5     211    12.8   784.80   20.62   -5.20  
 114    6:40    0.022     999.000     33.6    125     3.3     209     8.9   784.90   20.60   -4.90  
 114    6:50    0.033     999.000     33.7    125     3.3     196     7.9   784.90   20.62   -4.80  
 114    7:00    0.036     999.000     33.7    125     3.4     202    10.5   785.00   20.62   -4.20  
 114    7:10    0.064     999.000     33.9    125     3.9     186     7.7   785.00   20.63   -3.90  
 114    7:20    0.030     999.000     33.2    125     3.8     227    10.4   785.10   20.64   -3.70  
 114    7:30    0.040     999.000     32.9    125     3.0     214    10.1   785.20   20.64   -3.80  
 114    7:40    0.053     999.000     32.9    125     4.7     242    12.0   785.30   20.65   -3.90  
 114    7:50    0.070     999.000     33.1    125     3.6     240     9.2   785.40   20.65   -4.00  
 114    8:00    0.137     999.000     33.2    125     4.0     222    10.8   785.40   20.64   -4.10  
 114    8:10    0.066     999.000     33.2    125     2.7     240     8.9   785.40   20.65   -4.00  
 114    8:20    0.119     999.000     32.9    124     4.0     237    11.6   785.50   20.64   -4.70  
 114    8:30    0.118     999.000     33.0    124     3.6     252    11.2   785.60   20.62   -5.80  
 114    8:40    0.155     999.000     33.3    124     3.8     244    12.2   785.60   20.65   -6.50  
 114    8:50    0.268     999.000     33.9    124     4.1     215    11.3   785.70   20.63   -5.20  
 114    9:00    0.182     999.000     33.8    122     3.1     208     7.7   785.80   20.61   -5.50  
 114    9:10    0.273     999.000     33.7    113     3.5     204     8.6   785.90   20.65   -5.70  
 114    9:20    0.325     999.000     34.0    103     3.7     223    10.5   785.90   20.65   -6.10  
 114    9:30    0.509     999.000     34.8    107     3.2     249    10.8   785.90   20.64   -5.50  
 114    9:40    0.283     999.000     35.0     98     3.1     205     8.2   785.90   20.65   -4.70  
 114    9:50    0.566     999.000     35.0     95     2.7     229     8.0   786.00   20.65   -3.30  
 114   10:00    0.589     999.000     35.8     91     3.7     237     8.8   786.10   20.64   -3.30  
 114   10:10    0.615     999.000     35.9     88     3.8     240    11.1   786.10   20.65   -3.40  
 114   10:20    0.481     999.000     36.3     86     3.1     228     8.5   786.20   20.64   -3.30  
 114   10:30    0.524     999.000     36.2     83     4.4     245    11.4   786.30   20.65   -3.40  
 114   10:40    0.489     999.000     35.8     81     3.5     231    12.6   786.40   20.65   -3.30  
 114   10:50    0.646     999.000     36.4     80     3.4     225    12.2   786.30   20.64   -3.20  
 114   11:00    0.598     999.000     37.4     76     3.2     204    10.8   786.30   20.64   -3.30  
 114   11:10    0.532     999.000     37.3     76     3.9     192    10.8   786.30   20.65   -3.20  
 114   11:20    0.532     999.000     37.7     75     3.1     208    10.5   786.40   20.65   -3.20  
 114   11:30    0.554     999.000     38.1     72     4.2     238    13.0   786.30   20.65   -3.30  
 114   11:40    0.422     999.000     38.3     75     3.2     210     8.6   786.40   20.65   -3.20  
 114   11:50    0.544     999.000     38.0     70     4.6     242    12.5   786.40   20.65   -3.20  
 114   12:00    0.590     999.000     38.4     71     4.9     231    14.7   786.40   20.65   -3.30  
 114   12:10    0.700     999.000     38.3     61     5.3     224    13.6   786.40   20.65   -3.20  
 114   12:20    0.863     999.000     38.6     61     4.7     243    14.9   786.40   20.65   -3.30  
 114   12:30    0.881     999.000     40.2     64     3.1     227     7.7   786.20   20.64   -3.40  
 114   12:40    0.634     999.000     41.1     64     3.5     208    10.5   786.20   20.65   -3.30  
 114   12:50    0.477     999.000     40.5     65     3.6     221    10.8   786.20   20.64   -3.20  
 114   13:00    0.488     999.000     39.3     63     5.1     223    13.2   786.20   20.64   -3.20  
 114   13:10    0.196     999.000     38.4     68     4.4     207    10.4   786.20   20.65   -3.00  
 114   13:20    0.147     999.000     37.9     72     3.3     213    11.1   786.30   20.64   -3.00  
 114   13:30    0.165     999.000     36.4     78     4.8     204    13.4   786.30   20.65   -3.00  
 114   13:40    0.157     999.000     35.9     84     3.1     212    10.0   786.30   20.64   -3.00  
 114   13:50    0.150     999.000     35.7     88     4.4     222    15.0   786.40   20.65   -3.00  
 114   14:00    0.211     999.000     35.7     89     3.6     216    13.9   786.40   20.64   -3.00  
 114   14:10    0.123     999.000     36.0     87     4.1     201     9.4   786.20   20.66   -3.00  
 114   14:20    0.161     999.000     35.3     90     4.0     199     9.1   786.20   20.64   -3.00  
 114   14:30    0.407     999.000     36.5     88     3.1     220     8.9   786.30   20.65   -3.10  
 114   14:40    0.449     999.000     37.3     80     3.9     217    13.0   786.30   20.65   -3.00  
 114   14:50    0.174     999.000     37.5     75     4.0     209    12.8   786.40   20.65   -3.00  
 114   15:00    0.271     999.000     36.8     76     3.8     213     8.6   786.40   20.65   -3.00  
 114   15:10    0.095     999.000     36.9     75     3.5     215    12.3   786.50   20.65   -3.00  
 114   15:20    0.189     999.000     36.1     76     4.1     218    12.2   786.50   20.66   -3.00  
 114   15:30    0.090     999.000     36.3     78     3.4     211     8.5   786.60   20.65   -2.90  
 114   15:40    0.139     999.000     35.8     79     4.0     214    11.7   786.50   20.64   -3.00  
 114   15:50    0.211     999.000     36.3     78     3.4     213    10.0   786.50   20.65   -2.90  
 114   16:00    0.085     999.000     36.4     79     3.8     192     8.1   786.50   20.65   -3.00  
 114   16:10    0.077     999.000     35.9     80     3.2     223     8.6   786.60   20.65   -3.00  
 114   16:20    0.060     999.000     35.9     80     2.7     221     9.2   786.50   20.65   -3.00  
 114   16:30    0.021     999.000     35.7     82     2.8     216     7.4   786.40   20.65   -3.10  
 114   16:40    0.069     999.000     35.4     85     2.8     209     7.7   786.40   20.66   -3.00  
 114   16:50    0.015     999.000     35.2     87     2.8     207     6.7   786.30   20.65   -3.00  
 114   17:00    0.015     999.000     35.0     89     2.6     213     8.6   786.30   20.65   -2.90  
 114   17:10    0.026     999.000     34.8     90     3.4     207     9.3   786.40   20.65   -2.90  
 114   17:20    0.010     999.000     34.7     88     3.2     212     9.6   786.40   20.65   -2.90  
 114   17:30    0.019     999.000     34.4     86     3.7     205     9.6   786.50   20.66   -2.80  
 114   17:40    0.032     999.000     34.4     84     3.0     215    10.4   786.50   20.66   -2.90  
 114   17:50    0.025     999.000     34.3     83     3.5     202    10.7   786.50   20.65   -2.80  
 114   18:00    0.030     999.000     34.2     83     3.4     214     9.9   786.60   20.65   -2.80  
 114   18:10    0.024     999.000     34.0     80     3.4     224     9.7   786.60   20.66   -2.80  
 114   18:20    0.013     999.000     33.7     79     4.4     238    11.0   786.70   20.67   -2.80  
 114   18:30    0.012     999.000     33.5     79     3.2     219     6.6   786.80   20.66   -2.70  
 114   18:40    0.006     999.000     32.9     80     2.8     219     8.2   786.70   20.66   -2.80  
 114   18:50    0.001     999.000     32.5     76     2.2     218     5.9   786.70   20.66   -2.70  
 114   19:00    0.000     999.000     32.4     74     2.1     217     7.2   786.80   20.65   -2.60  
 114   19:10    0.000     999.000     32.3     72     2.0     203     4.1   786.70   20.65   -2.70  
 114   19:20    0.000     999.000     32.2     74     2.6     209     5.7   786.70   20.65   -2.70  
 114   19:30    0.000     999.000     32.0     76     2.3     219     7.0   786.60   20.66   -2.80  
 114   19:40    0.000     999.000     31.6     81     2.3     215     5.3   786.70   20.65   -2.80  
 114   19:50    0.000     999.000     30.5     90     3.1     229     8.9   786.60   20.66   -3.00  
 114   20:00    0.000     999.000     29.7    108     3.0     218    10.5   786.50   20.67   -3.00  
 114   20:10    0.000     999.000     29.6    119     3.3     220     9.3   786.60   20.67   -3.00  
 114   20:20    0.000     999.000     29.5    121     2.8     210     6.4   786.60   20.68   -3.10  
 114   20:30    0.000     999.000     29.5    123     2.5     212     6.7   786.50   20.67   -4.20  
 114   20:40    0.000     999.000     29.5    123     2.3     218     8.5   786.40   20.69   -4.10  
 114   20:50    0.000     999.000     29.5    124     2.7     230     7.7   786.30   20.69   -5.70  
 114   21:00    0.000     999.000     29.7    124     2.3     224     6.1   786.10   20.65   156.00  
 114   21:10    0.000     999.000     29.8    125     2.5     239     9.3   786.00   20.65   148.40  
 114   21:20    0.000     999.000     29.9    125     1.8     241     4.1   785.90   20.69   32.80  
 114   21:30    0.000     999.000     30.0    125     2.8     220    14.2   785.90   20.70   -3.20  
 114   21:40    0.000     999.000     30.0    125     1.8     224     6.4   785.90   20.67   34.80  
 114   21:50    0.000     999.000     30.0    125     2.0     218     5.9   785.60   20.74   54.20  
 114   22:00    0.000     999.000     30.0    125     2.2     229     6.2   785.40   20.73   171.10  
 114   22:10    0.000     999.000     30.1    125     1.6     225     3.6   785.20   20.74   175.70  
 114   22:20    0.000     999.000     30.1    126     2.0     217     6.8   785.00   20.76   175.70  
 114   22:30    0.000     999.000     30.2    126     2.0     229     4.9   784.90   20.78   175.70  
 114   22:40    0.000     999.000     30.1    126     2.6     223     9.5   784.80   20.81   175.70  
 114   22:50    0.000     999.000     30.1    126     2.3     224     6.0   784.60   20.82   175.70  
 114   23:00    0.000     999.000     30.1    126     2.2     234     5.4   784.60   20.84   175.70  
 114   23:10    0.000     999.000     30.1    126     2.2     244     5.9   784.50   20.82   175.70  
 114   23:20    0.000     999.000     30.0    126     2.0     243     6.3   784.40   20.88   175.70  
 114   23:30    0.000     999.000     30.0    126     2.0     219     4.8   784.30   20.90   175.70  
 114   23:40    0.000     999.000     29.9    126     3.1     235    10.4   784.20   20.95   172.70  
 114   23:50    0.000     999.000     29.9    126     2.0     223     6.1   784.10   20.97   175.70  
 115    0:00    0.000     999.000     29.8    126     2.8     218     6.1   784.00   20.97   175.70  
 115    0:10    0.000     999.000     29.7    125     2.5     236     8.2   783.90   21.03   175.70  
 115    0:20    0.000     999.000     29.6    125     2.5     233     7.5   783.90   21.04   174.20  
 115    0:30    0.000     999.000     29.6    125     2.3     225     9.2   783.80   21.07   175.70  
 115    0:40    0.000     999.000     29.5    125     2.8     214    10.1   783.70   21.10   175.70  
 115    0:50    0.000     999.000     29.4    125     2.3     225     9.0   783.50   21.12   175.70  
 115    1:00    0.000     999.000     29.4    125     2.1     212     6.5   783.40   21.13   175.70  
 115    1:10    0.000     999.000     29.4    125     1.8     218     8.4   783.30   21.15   175.70  
 115    1:20    0.000     999.000     29.2    125     2.1     213    10.4   783.10   21.17   175.70  
 115    1:30    0.000     999.000     29.1    125     2.0     225     7.3   783.00   21.21   175.70  
 115    1:40    0.000     999.000     29.0    125     1.7     231     6.0   782.90   21.23   175.70  
 115    1:50    0.000     999.000     29.0    125     1.2     217     5.9   782.80   21.26   175.70  
 115    2:00    0.000     999.000     29.0    125     2.0     215     8.7   782.60   21.29   175.70  
 115    2:10    0.000     999.000     28.9    125     1.4     220     3.4   782.60   21.32   174.30  
 115    2:20    0.000     999.000     28.9    125     2.0     220     7.7   782.50   21.34   175.70  
 115    2:30    0.000     999.000     28.8    125     1.8     219     6.8   782.40   21.37   175.70  
 115    2:40    0.000     999.000     28.8    125     1.8     218     4.8   782.40   21.39   175.70  
 115    2:50    0.000     999.000     28.8    125     1.6     201     5.0   782.30   21.44   164.00  
 115    3:00    0.000     999.000     28.9    125     1.6     198     4.2   782.30   21.47   175.70  
 115    3:10    0.000     999.000     28.8    125     1.3     193     3.3   782.20   21.50   171.40  

Return to Central Sierra Snow Lab graphs page.


Western Regional Climate Center,wrcc@dri.edu